createdAt,value
2023-02-08T00:01:39.120Z,97126.78
2023-02-08T00:04:09.210Z,97119.09
2023-02-08T00:06:41.670Z,97118.53
2023-02-08T00:09:12.270Z,97118.03
2023-02-08T00:11:42.115Z,97124.22
2023-02-08T00:14:12.194Z,97118.53
2023-02-08T00:16:42.049Z,97122.09
2023-02-08T00:19:12.176Z,97119.44
2023-02-08T00:21:44.678Z,97117.97
2023-02-08T00:24:14.768Z,97115.22
2023-02-08T00:26:44.806Z,97120.19
2023-02-08T00:29:14.967Z,97113.84
2023-02-08T00:31:47.251Z,97106.31
2023-02-08T00:34:17.174Z,97108.06
2023-02-08T00:36:49.993Z,97104.69
2023-02-08T00:39:21.238Z,97104.09
2023-02-08T00:41:51.081Z,97099.88
2023-02-08T00:44:21.254Z,97092.63
2023-02-08T00:46:54.232Z,97095.19
2023-02-08T00:49:24.329Z,97094.84
2023-02-08T00:51:57.073Z,97098.31
2023-02-08T00:54:26.949Z,97101.19
2023-02-08T00:56:57.099Z,97100.88
2023-02-08T00:59:28.122Z,97097.22
2023-02-08T01:01:57.966Z,97099.97
2023-02-08T01:04:28.412Z,97098.72
2023-02-08T01:07:03.448Z,97097.81
2023-02-08T01:09:34.326Z,97091.47
2023-02-08T01:12:04.182Z,97089.56
2023-02-08T01:14:34.102Z,97084.69
2023-02-08T01:17:03.959Z,97086.34
2023-02-08T01:19:34.707Z,97093.63
2023-02-08T01:22:08.987Z,97090.16
2023-02-08T01:24:38.880Z,97101.53
2023-02-08T01:27:08.969Z,97087.09
2023-02-08T01:29:43.099Z,97090.66
2023-02-08T01:32:13.629Z,97080.41
2023-02-08T01:34:44.307Z,97087.75
2023-02-08T01:37:16.863Z,97090.47
2023-02-08T01:39:46.801Z,97086.50
2023-02-08T01:42:17.150Z,97078.34
2023-02-08T01:45:26.821Z,97083.13
2023-02-08T01:48:03.990Z,97076.94
2023-02-08T01:50:44.638Z,97079.84
2023-02-08T01:53:17.698Z,97081.31
2023-02-08T01:55:52.183Z,97089.41
2023-02-08T01:58:25.861Z,97085.59
2023-02-08T02:00:56.290Z,97081.25
2023-02-08T02:03:28.013Z,97075.13
2023-02-08T02:06:10.181Z,97075.63
2023-02-08T02:08:52.609Z,97072.97
2023-02-08T02:11:22.991Z,97073.22
2023-02-08T02:13:56.932Z,97070.94
2023-02-08T02:16:27.108Z,97064.50
2023-02-08T02:18:57.267Z,97068.28
2023-02-08T02:21:57.512Z,97074.63
2023-02-08T02:25:01.559Z,97078.09
2023-02-08T02:28:14.160Z,97068.38
2023-02-08T02:31:09.793Z,97072.06
2023-02-08T02:34:03.224Z,97068.53
2023-02-08T02:36:47.387Z,97069.66
2023-02-08T02:39:27.831Z,97072.53
2023-02-08T02:42:19.861Z,97065.13
2023-02-08T02:44:59.942Z,97074.38
2023-02-08T02:47:42.740Z,97071.72
2023-02-08T02:50:27.242Z,97083.28
2023-02-08T02:53:06.328Z,97080.06
2023-02-08T02:55:44.502Z,97081.31
2023-02-08T02:58:19.539Z,97071.97
2023-02-08T03:00:56.455Z,97070.31
2023-02-08T03:03:29.740Z,97073.53
2023-02-08T03:06:06.233Z,97071.63
2023-02-08T03:09:07.553Z,97080.28
2023-02-08T03:11:45.841Z,97078.25
2023-02-08T03:14:38.997Z,97078.66
2023-02-08T03:17:33.615Z,97080.44
2023-02-08T03:20:12.066Z,97073.84
2023-02-08T03:22:58.675Z,97074.59
2023-02-08T03:25:37.557Z,97065.75
2023-02-08T03:28:19.770Z,97070.72
2023-02-08T03:31:02.256Z,97065.47
2023-02-08T03:33:40.030Z,97066.78
2023-02-08T03:36:26.013Z,97066.09
2023-02-08T03:38:59.805Z,97063.84
2023-02-08T03:41:35.636Z,97060.50
2023-02-08T03:44:13.168Z,97060.50
2023-02-08T03:46:52.471Z,97060.25
2023-02-08T03:49:29.352Z,97060.34
2023-02-08T03:52:04.035Z,97060.66
2023-02-08T03:54:42.765Z,97054.38
2023-02-08T03:57:20.218Z,97058.19
2023-02-08T03:59:59.711Z,97056.78
2023-02-08T04:02:33.276Z,97054.22
2023-02-08T04:05:04.693Z,97052.47
2023-02-08T04:07:36.131Z,97056.19
2023-02-08T04:10:09.318Z,97055.97
2023-02-08T04:12:40.509Z,97052.25
2023-02-08T04:15:12.553Z,97054.47
2023-02-08T04:17:42.456Z,97051.50
2023-02-08T04:20:18.215Z,97046.31
2023-02-08T04:22:49.038Z,97045.47
2023-02-08T04:25:21.808Z,97047.19
2023-02-08T04:27:51.657Z,97041.28
2023-02-08T04:30:22.404Z,97037.38
2023-02-08T04:32:52.247Z,97033.31
2023-02-08T04:35:22.091Z,97033.31
2023-02-08T04:37:52.227Z,97036.47
2023-02-08T04:40:26.968Z,97032.25
2023-02-08T04:42:56.782Z,97033.31
2023-02-08T04:45:27.172Z,97031.84
2023-02-08T04:47:59.126Z,97027.69
2023-02-08T04:50:32.260Z,97033.56
2023-02-08T04:53:02.399Z,97026.13
2023-02-08T04:55:36.137Z,97029.34
2023-02-08T04:58:06.383Z,97031.00
2023-02-08T05:00:36.345Z,97026.41
2023-02-08T05:03:06.331Z,97021.03
2023-02-08T05:05:36.256Z,97015.50
2023-02-08T05:08:06.804Z,97017.41
2023-02-08T05:10:39.893Z,97021.53
2023-02-08T05:13:10.283Z,97023.50
2023-02-08T05:15:43.045Z,97012.13
2023-02-08T05:18:13.293Z,97020.72
2023-02-08T05:20:45.157Z,97012.44
2023-02-08T05:23:15.083Z,97018.16
2023-02-08T05:25:47.512Z,97012.38
2023-02-08T05:28:17.845Z,97007.19
2023-02-08T05:30:48.194Z,97014.91
2023-02-08T05:33:19.312Z,97016.91
2023-02-08T05:35:49.522Z,97010.38
2023-02-08T05:38:19.474Z,97017.28
2023-02-08T05:40:51.929Z,97010.53
2023-02-08T05:43:21.865Z,97016.75
2023-02-08T05:45:52.838Z,97018.78
2023-02-08T05:48:23.294Z,97014.06
2023-02-08T05:50:53.128Z,97018.34
2023-02-08T05:53:23.284Z,97010.47
2023-02-08T05:55:56.321Z,97015.72
2023-02-08T05:58:28.365Z,97025.94
2023-02-08T06:00:58.954Z,97019.66
2023-02-08T06:03:28.951Z,97016.50
2023-02-08T06:06:04.646Z,97019.56
2023-02-08T06:08:36.071Z,97016.84
2023-02-08T06:11:09.230Z,97010.25
2023-02-08T06:13:39.276Z,97009.97
2023-02-08T06:16:10.141Z,97010.91
2023-02-08T06:18:42.561Z,97013.94
2023-02-08T06:21:12.499Z,97005.28
2023-02-08T06:23:43.355Z,97000.34
2023-02-08T06:26:16.427Z,97007.34
2023-02-08T06:28:47.223Z,97013.06
2023-02-08T06:31:17.089Z,96999.41
2023-02-08T06:33:46.953Z,97013.69
2023-02-08T06:36:18.336Z,97010.88
2023-02-08T06:38:50.421Z,97018.22
2023-02-08T06:41:24.276Z,97020.47
2023-02-08T06:43:54.111Z,97024.47
2023-02-08T06:46:26.331Z,97021.69
2023-02-08T06:48:58.072Z,97027.75
2023-02-08T06:51:27.909Z,97032.16
2023-02-08T06:53:57.675Z,97033.19
2023-02-08T06:56:30.543Z,97034.72
2023-02-08T06:59:02.361Z,97040.47
2023-02-08T07:01:32.400Z,97040.22
2023-02-08T07:04:02.260Z,97042.84
2023-02-08T07:06:32.171Z,97035.56
2023-02-08T07:09:02.759Z,97037.16
2023-02-08T07:11:35.265Z,97045.34
2023-02-08T07:14:05.468Z,97038.66
2023-02-08T07:16:35.306Z,97041.44
2023-02-08T07:19:05.150Z,97035.81
2023-02-08T07:21:35.484Z,97045.09
2023-02-08T07:24:08.027Z,97034.66
2023-02-08T07:26:41.804Z,97043.31
2023-02-08T07:29:13.095Z,97044.72
2023-02-08T07:31:43.037Z,97029.50
2023-02-08T07:34:17.091Z,97033.72
2023-02-08T07:36:50.364Z,97030.25
2023-02-08T07:39:21.825Z,97029.09
2023-02-08T07:41:55.013Z,97035.13
2023-02-08T07:44:30.148Z,97027.44
2023-02-08T07:47:01.725Z,97033.22
2023-02-08T07:49:31.606Z,97034.78
2023-02-08T07:52:01.879Z,97029.16
2023-02-08T07:54:32.165Z,97034.09
2023-02-08T07:57:04.649Z,97032.78
2023-02-08T07:59:34.432Z,97041.22
2023-02-08T08:02:04.255Z,97036.19
2023-02-08T08:04:34.121Z,97030.16
2023-02-08T08:07:06.190Z,97029.94
2023-02-08T08:09:36.097Z,97032.75
2023-02-08T08:12:09.212Z,97021.63
2023-02-08T08:14:39.815Z,97029.16
2023-02-08T08:17:09.918Z,97038.03
2023-02-08T08:19:40.119Z,97033.88
2023-02-08T08:22:10.063Z,97027.13
2023-02-08T08:24:40.123Z,97036.91
2023-02-08T08:27:12.555Z,97036.94
2023-02-08T08:29:42.406Z,97036.09
2023-02-08T08:32:12.228Z,97034.28
2023-02-08T08:34:42.191Z,97028.63
2023-02-08T08:37:12.942Z,97043.53
2023-02-08T08:39:43.593Z,97025.59
2023-02-08T08:42:16.428Z,97029.44
2023-02-08T08:44:46.227Z,97028.03
2023-02-08T08:47:16.713Z,97029.81
2023-02-08T08:49:46.563Z,97034.63
2023-02-08T08:52:17.035Z,97045.56
2023-02-08T08:54:46.949Z,97026.34
2023-02-08T08:57:19.635Z,97030.75
2023-02-08T08:59:49.486Z,97035.91
2023-02-08T09:02:19.357Z,97037.66
2023-02-08T09:04:49.206Z,97027.88
2023-02-08T09:07:19.035Z,97031.53
2023-02-08T09:09:49.185Z,97030.00
2023-02-08T09:12:21.629Z,97035.50
2023-02-08T09:14:51.793Z,97020.78
2023-02-08T09:17:21.611Z,97027.28
2023-02-08T09:19:51.437Z,97018.41
2023-02-08T09:22:22.111Z,97025.19
2023-02-08T09:24:52.031Z,97028.16
2023-02-08T09:27:24.508Z,97027.50
2023-02-08T09:29:54.284Z,97028.16
2023-02-08T09:32:24.326Z,97032.84
2023-02-08T09:34:54.170Z,97024.47
2023-02-08T09:37:24.047Z,97018.56
2023-02-08T09:39:54.013Z,97022.16
2023-02-08T09:42:44.616Z,97031.41
2023-02-08T09:45:36.777Z,97034.84
2023-02-08T09:48:21.154Z,97030.66
2023-02-08T09:50:57.005Z,97033.84
2023-02-08T09:53:34.437Z,97033.13
2023-02-08T09:56:08.425Z,97033.94
2023-02-08T09:58:44.375Z,97035.38
2023-02-08T10:01:22.992Z,97037.66
2023-02-08T10:03:56.380Z,97042.41
2023-02-08T10:06:26.828Z,97048.75
2023-02-08T10:08:57.133Z,97032.88
2023-02-08T10:11:49.834Z,97033.13
2023-02-08T10:14:41.471Z,97033.47
2023-02-08T10:17:35.168Z,97036.75
2023-02-08T10:20:21.599Z,97040.03
2023-02-08T10:23:06.804Z,97032.28
2023-02-08T10:25:58.066Z,97019.03
2023-02-08T10:28:43.554Z,97015.03
2023-02-08T10:31:36.166Z,97012.41
2023-02-08T10:34:14.250Z,97025.25
2023-02-08T10:36:44.375Z,97010.69
2023-02-08T10:39:19.161Z,97009.94
2023-02-08T10:41:50.156Z,97015.88
2023-02-08T10:44:30.337Z,97003.13
2023-02-08T10:47:14.128Z,96994.97
2023-02-08T10:49:52.361Z,96988.56
2023-02-08T10:52:22.429Z,96997.59
2023-02-08T10:54:52.265Z,96992.41
2023-02-08T10:57:28.649Z,96993.78
2023-02-08T11:00:04.834Z,96992.31
2023-02-08T11:02:43.563Z,96973.72
2023-02-08T11:05:15.753Z,96983.00
2023-02-08T11:07:46.280Z,96969.88
2023-02-08T11:10:23.890Z,96970.78
2023-02-08T11:13:00.540Z,96971.00
2023-02-08T11:15:36.766Z,96972.09
2023-02-08T11:18:18.345Z,96967.03
2023-02-08T11:20:52.602Z,96963.69
2023-02-08T11:23:28.337Z,96970.13
2023-02-08T11:26:17.780Z,96975.56
2023-02-08T11:29:01.126Z,96965.81
2023-02-08T11:31:32.334Z,96979.47
2023-02-08T11:34:09.305Z,96970.88
2023-02-08T11:36:46.804Z,96967.94
2023-02-08T11:39:26.361Z,96961.78
2023-02-08T11:42:02.349Z,96971.78
2023-02-08T11:44:36.582Z,96979.78
2023-02-08T11:47:10.237Z,96959.25
2023-02-08T11:49:46.428Z,96953.13
2023-02-08T11:52:25.568Z,96956.78
2023-02-08T11:54:57.292Z,96959.81
2023-02-08T11:57:32.710Z,96957.28
2023-02-08T12:00:22.151Z,96939.06
2023-02-08T12:03:02.496Z,96957.69
2023-02-08T12:05:47.356Z,96954.22
2023-02-08T12:08:28.676Z,96938.56
2023-02-08T12:11:11.467Z,96928.16
2023-02-08T12:14:02.415Z,96924.91
2023-02-08T12:16:56.857Z,96926.91
2023-02-08T12:19:53.630Z,96923.41
2023-02-08T12:22:42.244Z,96919.59
2023-02-08T12:25:27.498Z,96916.81
2023-02-08T12:28:05.942Z,96909.41
2023-02-08T12:30:38.514Z,96910.03
2023-02-08T12:33:38.120Z,96900.56
2023-02-08T12:36:29.926Z,96898.53
2023-02-08T12:39:29.104Z,96894.25
2023-02-08T12:42:34.950Z,96891.69
2023-02-08T12:45:33.010Z,96892.28
2023-02-08T12:48:18.747Z,96886.75
2023-02-08T12:50:58.916Z,96874.19
2023-02-08T12:53:33.388Z,96877.72
2023-02-08T12:56:16.725Z,96868.75
2023-02-08T12:58:54.996Z,96877.69
2023-02-08T13:01:34.060Z,96870.31
2023-02-08T13:04:11.298Z,96865.28
2023-02-08T13:06:45.737Z,96851.63
2023-02-08T13:09:25.480Z,96857.53
2023-02-08T13:12:05.352Z,96854.97
2023-02-08T13:14:40.693Z,96850.06
2023-02-08T13:17:21.112Z,96851.16
2023-02-08T13:20:01.581Z,96839.44
2023-02-08T13:22:37.468Z,96851.28
2023-02-08T13:25:16.439Z,96842.72
2023-02-08T13:27:54.360Z,96841.84
2023-02-08T13:30:25.775Z,96827.91
2023-02-08T13:33:01.105Z,96844.50
2023-02-08T13:35:35.841Z,96840.22
2023-02-08T13:38:09.108Z,96837.63
2023-02-08T13:40:41.973Z,96834.97
2023-02-08T13:43:35.665Z,96826.19
2023-02-08T13:46:08.118Z,96828.66
2023-02-08T13:48:48.762Z,96829.00
2023-02-08T13:51:59.672Z,96826.91
2023-02-08T13:54:29.769Z,96822.19
2023-02-08T13:57:00.792Z,96824.78
2023-02-08T13:59:42.247Z,96824.53
2023-02-08T14:02:35.897Z,96823.97
2023-02-08T14:05:38.815Z,96822.19
2023-02-08T14:08:18.963Z,96825.81
2023-02-08T14:11:05.838Z,96816.91
2023-02-08T14:13:42.589Z,96824.56
2023-02-08T14:16:34.427Z,96818.44
2023-02-08T14:19:09.422Z,96823.38
2023-02-08T14:21:45.339Z,96827.84
2023-02-08T14:24:26.189Z,96821.75
2023-02-08T14:27:11.175Z,96828.75
2023-02-08T14:29:45.374Z,96827.72
2023-02-08T14:32:31.804Z,96823.72
2023-02-08T14:35:07.438Z,96822.91
2023-02-08T14:37:40.094Z,96815.75
2023-02-08T14:40:37.893Z,96821.25
2023-02-08T14:43:34.211Z,96817.84
2023-02-08T14:46:37.165Z,96822.06
2023-02-08T14:49:13.254Z,96822.44
2023-02-08T14:51:49.074Z,96819.38
2023-02-08T14:54:27.021Z,96812.72
2023-02-08T14:57:03.953Z,96818.88
2023-02-08T14:59:38.849Z,96817.47
2023-02-08T15:02:25.785Z,96821.44
2023-02-08T15:04:59.971Z,96819.09
2023-02-08T15:07:38.129Z,96814.81
2023-02-08T15:10:16.010Z,96813.75
2023-02-08T15:12:49.775Z,96811.16
2023-02-08T15:15:34.551Z,96812.56
2023-02-08T15:18:08.183Z,96816.19
2023-02-08T15:20:39.648Z,96820.91
2023-02-08T15:23:23.096Z,96815.16
2023-02-08T15:25:58.536Z,96815.41
2023-02-08T15:28:30.976Z,96817.97
2023-02-08T15:31:07.883Z,96805.19
2023-02-08T15:33:42.938Z,96822.09
2023-02-08T15:36:21.342Z,96820.88
2023-02-08T15:38:51.872Z,96818.53
2023-02-08T15:41:29.029Z,96824.59
2023-02-08T15:44:19.715Z,96823.41
2023-02-08T15:46:55.567Z,96816.63
2023-02-08T15:49:33.042Z,96814.28
2023-02-08T15:52:08.817Z,96816.94
2023-02-08T15:54:41.030Z,96815.19
2023-02-08T15:57:25.036Z,96816.81
2023-02-08T15:59:55.945Z,96818.78
2023-02-08T16:02:32.285Z,96816.63
2023-02-08T16:05:05.019Z,96813.63
2023-02-08T16:07:41.019Z,96826.78
2023-02-08T16:10:31.168Z,96820.59
2023-02-08T16:13:04.116Z,96820.22
2023-02-08T16:15:45.148Z,96824.72
2023-02-08T16:18:41.451Z,96820.38
2023-02-08T16:21:24.848Z,96809.16
2023-02-08T16:23:57.056Z,96804.34
2023-02-08T16:26:32.094Z,96813.09
2023-02-08T16:29:05.335Z,96805.38
2023-02-08T16:31:39.446Z,96811.19
2023-02-08T16:34:21.165Z,96810.97
2023-02-08T16:36:55.148Z,96809.53
2023-02-08T16:39:55.311Z,96806.06
2023-02-08T16:42:33.893Z,96816.78
2023-02-08T16:45:16.040Z,96817.31
2023-02-08T16:47:49.279Z,96832.25
2023-02-08T16:50:24.744Z,96836.22
2023-02-08T16:52:59.507Z,96832.94
2023-02-08T16:55:32.606Z,96836.44
2023-02-08T16:58:03.128Z,96834.81
2023-02-08T17:00:35.865Z,96837.38
2023-02-08T17:03:06.124Z,96839.34
2023-02-08T17:05:42.622Z,96834.63
2023-02-08T17:08:20.587Z,96837.94
2023-02-08T17:10:52.733Z,96843.50
2023-02-08T17:13:24.671Z,96849.22
2023-02-08T17:15:57.609Z,96848.00
2023-02-08T17:18:27.581Z,96846.91
2023-02-08T17:21:01.639Z,96841.66
2023-02-08T17:23:31.779Z,96840.94
2023-02-08T17:26:02.138Z,96850.41
2023-02-08T17:28:34.598Z,96840.31
2023-02-08T17:31:05.245Z,96837.03
2023-02-08T17:33:40.290Z,96838.69
2023-02-08T17:36:16.818Z,96844.16
2023-02-08T17:38:49.220Z,96832.94
2023-02-08T17:41:21.900Z,96833.13
2023-02-08T17:43:54.247Z,96828.63
2023-02-08T17:46:28.347Z,96823.19
2023-02-08T17:48:59.534Z,96820.63
2023-02-08T17:51:34.697Z,96824.44
2023-02-08T17:54:07.467Z,96822.88
2023-02-08T17:56:37.690Z,96822.25
2023-02-08T17:59:07.811Z,96815.97
2023-02-08T18:01:37.810Z,96821.34
2023-02-08T18:04:11.439Z,96821.13
2023-02-08T18:06:43.913Z,96820.53
2023-02-08T18:09:13.978Z,96815.38
2023-02-08T18:11:45.058Z,96822.88
2023-02-08T18:14:15.283Z,96817.44
2023-02-08T18:16:47.341Z,96813.84
2023-02-08T18:19:17.218Z,96810.16
2023-02-08T18:21:52.946Z,96814.28
2023-02-08T18:24:25.801Z,96816.50
2023-02-08T18:26:57.962Z,96810.16
2023-02-08T18:29:30.132Z,96807.56
2023-02-08T18:32:00.302Z,96808.81
2023-02-08T18:34:30.330Z,96817.03
2023-02-08T18:37:03.021Z,96806.06
2023-02-08T18:39:32.949Z,96803.72
2023-02-08T18:42:03.717Z,96808.72
2023-02-08T18:44:35.396Z,96805.53
2023-02-08T18:47:05.394Z,96804.00
2023-02-08T18:49:40.471Z,96808.72
2023-02-08T18:52:16.271Z,96805.88
2023-02-08T18:54:46.655Z,96805.88
2023-02-08T18:57:18.225Z,96807.50
2023-02-08T18:59:48.247Z,96811.91
2023-02-08T19:02:24.195Z,96805.44
2023-02-08T19:04:54.631Z,96801.53
2023-02-08T19:07:27.354Z,96797.81
2023-02-08T19:09:57.207Z,96796.72
2023-02-08T19:12:27.518Z,96797.41
2023-02-08T19:14:57.936Z,96790.03
2023-02-08T19:17:27.853Z,96801.13
2023-02-08T19:19:57.702Z,96788.28
2023-02-08T19:22:31.512Z,96789.94
2023-02-08T19:25:01.528Z,96791.47
2023-02-08T19:27:31.502Z,96794.38
2023-02-08T19:30:01.606Z,96796.81
2023-02-08T19:32:31.470Z,96788.50
2023-02-08T19:35:01.985Z,96789.00
2023-02-08T19:37:35.085Z,96785.72
2023-02-08T19:40:05.172Z,96783.06
2023-02-08T19:42:35.280Z,96785.84
2023-02-08T19:45:05.281Z,96780.06
2023-02-08T19:47:50.722Z,96776.91
2023-02-08T19:50:22.649Z,96775.97
2023-02-08T19:52:55.071Z,96771.25
2023-02-08T19:55:25.037Z,96769.59
2023-02-08T19:57:55.000Z,96774.34
2023-02-08T20:00:26.056Z,96776.25
2023-02-08T20:02:55.927Z,96773.50
2023-02-08T20:05:26.097Z,96767.53
2023-02-08T20:07:58.496Z,96772.56
2023-02-08T20:10:28.695Z,96768.13
2023-02-08T20:12:58.794Z,96767.53
2023-02-08T20:15:29.370Z,96769.97
2023-02-08T20:18:02.164Z,96767.91
2023-02-08T20:20:32.324Z,96770.38
2023-02-08T20:23:14.056Z,96770.91
2023-02-08T20:25:47.578Z,96773.47
2023-02-08T20:28:17.697Z,96776.97
2023-02-08T20:30:47.620Z,96777.38
2023-02-08T20:33:17.483Z,96767.81
2023-02-08T20:35:47.418Z,96780.34
2023-02-08T20:38:20.367Z,96779.72
2023-02-08T20:40:52.604Z,96780.94
2023-02-08T20:43:23.873Z,96779.41
2023-02-08T20:45:53.854Z,96784.28
2023-02-08T20:48:23.728Z,96782.16
2023-02-08T20:50:53.597Z,96778.75
2023-02-08T20:53:25.946Z,96786.16
2023-02-08T20:55:56.417Z,96793.16
2023-02-08T20:58:28.956Z,96792.34
2023-02-08T21:00:58.920Z,96786.56
2023-02-08T21:03:31.826Z,96783.81
2023-02-08T21:06:01.784Z,96780.63
2023-02-08T21:08:35.429Z,96786.13
2023-02-08T21:11:05.665Z,96781.72
2023-02-08T21:13:40.396Z,96780.88
2023-02-08T21:16:12.321Z,96779.97
2023-02-08T21:18:42.490Z,96774.91
2023-02-08T21:21:20.078Z,96782.53
2023-02-08T21:23:53.629Z,96780.53
2023-02-08T21:26:24.122Z,96775.72
2023-02-08T21:28:59.347Z,96784.03
2023-02-08T21:31:30.111Z,96780.09
2023-02-08T21:34:03.027Z,96774.53
2023-02-08T21:36:33.732Z,96772.56
2023-02-08T21:39:07.616Z,96773.00
2023-02-08T21:41:38.687Z,96771.75
2023-02-08T21:44:10.514Z,96771.03
2023-02-08T21:46:40.639Z,96769.47
2023-02-08T21:49:23.106Z,96759.59
2023-02-08T21:52:06.677Z,96757.47
2023-02-08T21:54:44.653Z,96754.97
2023-02-08T21:57:19.165Z,96760.47
2023-02-08T21:59:50.609Z,96755.84
2023-02-08T22:02:24.739Z,96751.28
2023-02-08T22:05:11.477Z,96749.94
2023-02-08T22:07:48.356Z,96757.28
2023-02-08T22:10:23.164Z,96754.81
2023-02-08T22:12:55.624Z,96744.84
2023-02-08T22:15:28.639Z,96750.09
2023-02-08T22:18:00.827Z,96750.38
2023-02-08T22:20:32.240Z,96747.66
2023-02-08T22:23:02.091Z,96739.78
2023-02-08T22:25:35.301Z,96746.22
2023-02-08T22:28:06.611Z,96753.56
2023-02-08T22:30:36.911Z,96744.81
2023-02-08T22:33:06.906Z,96748.91
2023-02-08T22:35:37.058Z,96753.22
2023-02-08T22:38:06.916Z,96746.34
2023-02-08T22:40:39.828Z,96743.28
2023-02-08T22:43:10.086Z,96750.94
2023-02-08T22:45:41.348Z,96748.09
2023-02-08T22:48:11.830Z,96745.81
2023-02-08T22:50:41.789Z,96746.22
2023-02-08T22:53:11.611Z,96740.34
2023-02-08T22:55:51.274Z,96739.81
2023-02-08T22:58:21.752Z,96732.75
2023-02-08T23:00:52.280Z,96740.31
2023-02-08T23:03:22.139Z,96739.06
2023-02-08T23:05:53.594Z,96729.63
2023-02-08T23:08:25.878Z,96727.28
2023-02-08T23:11:05.134Z,96734.50
2023-02-08T23:13:36.673Z,96732.41
2023-02-08T23:16:07.399Z,96730.84
2023-02-08T23:18:38.408Z,96734.97
2023-02-08T23:21:09.644Z,96729.19
2023-02-08T23:23:40.119Z,96736.41
2023-02-08T23:26:15.847Z,96725.34
2023-02-08T23:28:46.468Z,96729.63
2023-02-08T23:31:17.359Z,96733.25
2023-02-08T23:33:47.524Z,96729.88
2023-02-08T23:36:19.942Z,96731.47
2023-02-08T23:38:50.349Z,96729.31
2023-02-08T23:41:26.010Z,96733.69
2023-02-08T23:43:56.234Z,96730.31
2023-02-08T23:46:28.990Z,96724.47
2023-02-08T23:48:59.409Z,96722.13
2023-02-08T23:51:29.863Z,96722.44
2023-02-08T23:53:59.782Z,96717.22
2023-02-08T23:56:34.467Z,96714.47
2023-02-08T23:59:08.097Z,96719.22
